createdAt,value
2022-09-16T00:00:25.709Z,0.63
2022-09-16T00:02:53.636Z,0.40
2022-09-16T00:05:21.026Z,1.15
2022-09-16T00:07:47.816Z,1.15
2022-09-16T00:10:14.840Z,0.95
2022-09-16T00:12:41.881Z,0.70
2022-09-16T00:15:09.967Z,0.73
2022-09-16T00:17:37.889Z,0.50
2022-09-16T00:20:06.001Z,0.77
2022-09-16T00:22:33.225Z,0.70
2022-09-16T00:24:59.848Z,0.80
2022-09-16T00:27:26.947Z,0.98
2022-09-16T00:29:53.749Z,0.77
2022-09-16T00:32:20.493Z,0.80
2022-09-16T00:34:47.122Z,0.70
2022-09-16T00:37:13.740Z,0.88
2022-09-16T00:39:40.439Z,1.08
2022-09-16T00:42:07.134Z,1.00
2022-09-16T00:44:52.971Z,1.00
2022-09-16T00:47:37.827Z,0.70
2022-09-16T00:50:12.184Z,0.98
2022-09-16T00:52:41.535Z,1.27
2022-09-16T00:55:11.248Z,0.70
2022-09-16T00:57:39.706Z,1.00
2022-09-16T01:00:09.608Z,1.30
2022-09-16T01:02:36.316Z,1.02
2022-09-16T01:05:07.932Z,1.25
2022-09-16T01:07:44.753Z,1.75
2022-09-16T01:10:14.196Z,1.55
2022-09-16T01:12:43.523Z,0.85
2022-09-16T01:15:10.976Z,1.13
2022-09-16T01:17:58.809Z,1.10
2022-09-16T01:20:40.307Z,1.05
2022-09-16T01:23:40.867Z,1.05
2022-09-16T01:26:16.544Z,1.00
2022-09-16T01:29:17.079Z,1.33
2022-09-16T01:32:04.237Z,1.20
2022-09-16T01:35:04.706Z,1.13
2022-09-16T01:38:03.443Z,1.02
2022-09-16T01:41:15.794Z,1.40
2022-09-16T01:44:09.879Z,1.55
2022-09-16T01:46:46.946Z,1.40
2022-09-16T01:49:41.235Z,1.50
2022-09-16T01:52:21.683Z,1.70
2022-09-16T01:54:59.508Z,1.30
2022-09-16T01:57:45.412Z,1.73
2022-09-16T02:00:14.393Z,1.40
2022-09-16T02:02:43.892Z,1.40
2022-09-16T02:05:20.231Z,1.67
2022-09-16T02:07:52.285Z,1.60
2022-09-16T02:13:23.230Z,1.27
2022-09-16T02:15:52.534Z,1.40
2022-09-16T02:18:26.115Z,1.42
2022-09-16T02:20:54.545Z,1.50
2022-09-16T02:23:33.358Z,1.65
2022-09-16T02:26:01.570Z,1.92
2022-09-16T02:28:33.136Z,1.63
2022-09-16T02:31:05.314Z,1.80
2022-09-16T02:34:00.478Z,1.52
2022-09-16T02:36:28.732Z,2.03
2022-09-16T02:39:08.545Z,1.98
2022-09-16T02:41:40.416Z,1.90
2022-09-16T02:44:09.272Z,2.35
2022-09-16T02:46:55.471Z,2.10
2022-09-16T02:50:08.581Z,1.50
2022-09-16T02:53:18.191Z,1.90
2022-09-16T02:56:06.429Z,1.58
2022-09-16T02:58:36.408Z,1.20
2022-09-16T03:01:04.175Z,1.27
2022-09-16T03:03:30.914Z,1.63
2022-09-16T03:06:06.635Z,1.42
2022-09-16T03:08:34.558Z,1.20
2022-09-16T03:11:22.099Z,1.20
2022-09-16T03:14:18.118Z,1.70
2022-09-16T03:16:53.570Z,1.50
2022-09-16T03:19:26.180Z,1.23
2022-09-16T03:22:05.096Z,1.40
2022-09-16T03:24:58.386Z,1.30
2022-09-16T03:27:35.898Z,1.58
2022-09-16T03:30:10.676Z,2.13
2022-09-16T03:32:54.645Z,1.50
2022-09-16T03:35:37.027Z,1.23
2022-09-16T03:38:06.341Z,1.20
2022-09-16T03:40:33.915Z,1.48
2022-09-16T03:43:00.892Z,1.73
2022-09-16T03:45:27.530Z,1.50
2022-09-16T03:47:54.241Z,1.35
2022-09-16T03:50:21.714Z,1.80
2022-09-16T03:52:48.479Z,1.60
2022-09-16T03:55:16.839Z,1.80
2022-09-16T03:57:43.661Z,1.50
2022-09-16T04:00:11.093Z,1.80
2022-09-16T04:02:40.460Z,1.67
2022-09-16T04:05:08.809Z,1.77
2022-09-16T04:07:35.874Z,1.23
2022-09-16T04:10:02.938Z,1.75
2022-09-16T04:12:29.761Z,2.13
2022-09-16T04:14:56.596Z,1.88
2022-09-16T04:17:23.839Z,1.40
2022-09-16T04:19:51.181Z,1.65
2022-09-16T04:22:17.821Z,2.15
2022-09-16T04:24:44.458Z,1.92
2022-09-16T04:27:11.229Z,1.60
2022-09-16T04:29:37.829Z,1.65
2022-09-16T04:32:04.582Z,1.80
2022-09-16T04:34:32.420Z,1.50
2022-09-16T04:36:59.342Z,1.65
2022-09-16T04:39:25.997Z,1.52
2022-09-16T04:41:52.631Z,1.65
2022-09-16T04:44:19.314Z,1.77
2022-09-16T04:46:45.918Z,1.65
2022-09-16T04:49:12.867Z,2.08
2022-09-16T04:51:39.622Z,1.30
2022-09-16T04:54:06.613Z,1.50
2022-09-16T04:56:33.293Z,1.60
2022-09-16T04:59:02.462Z,1.48
2022-09-16T05:01:35.688Z,1.80
2022-09-16T05:04:05.275Z,1.42
2022-09-16T05:06:38.453Z,1.45
2022-09-16T05:09:05.684Z,1.25
2022-09-16T05:11:35.875Z,1.70
2022-09-16T05:14:04.998Z,1.30
2022-09-16T05:16:32.899Z,1.15
2022-09-16T05:19:01.575Z,1.45
2022-09-16T05:21:28.868Z,1.60
2022-09-16T05:23:59.431Z,1.38
2022-09-16T05:26:28.643Z,1.00
2022-09-16T05:28:55.297Z,1.23
2022-09-16T05:31:27.028Z,1.40
2022-09-16T05:33:59.064Z,1.50
2022-09-16T05:39:18.125Z,1.33
2022-09-16T05:41:40.093Z,1.27
2022-09-16T05:44:06.855Z,1.45
2022-09-16T05:46:33.984Z,1.38
2022-09-16T05:49:00.786Z,1.08
2022-09-16T05:51:28.717Z,1.33
2022-09-16T05:53:55.896Z,1.50
2022-09-16T05:56:29.000Z,1.40
2022-09-16T05:58:59.909Z,1.13
2022-09-16T06:01:32.424Z,1.48
2022-09-16T06:04:02.223Z,1.35
2022-09-16T06:06:36.907Z,1.50
2022-09-16T06:09:24.130Z,1.27
2022-09-16T06:11:56.854Z,1.25
2022-09-16T06:14:25.046Z,1.35
2022-09-16T06:16:51.678Z,1.20
2022-09-16T06:19:18.887Z,1.33
2022-09-16T06:21:46.588Z,1.48
2022-09-16T06:24:14.494Z,1.70
2022-09-16T06:26:43.446Z,1.80
2022-09-16T06:29:10.606Z,1.08
2022-09-16T06:31:38.433Z,1.30
2022-09-16T06:34:05.773Z,1.50
2022-09-16T06:36:41.574Z,1.50
2022-09-16T06:39:13.094Z,1.63
2022-09-16T06:41:39.800Z,1.17
2022-09-16T06:44:06.435Z,1.25
2022-09-16T06:46:33.039Z,1.35
2022-09-16T06:49:05.089Z,1.20
2022-09-16T06:51:33.154Z,1.35
2022-09-16T06:54:02.241Z,1.00
2022-09-16T06:56:29.017Z,1.45
2022-09-16T06:58:56.031Z,1.25
2022-09-16T07:01:25.985Z,1.40
2022-09-16T07:03:54.225Z,1.42
2022-09-16T07:06:37.278Z,1.65
2022-09-16T07:09:11.148Z,1.20
2022-09-16T07:11:37.836Z,1.48
2022-09-16T07:14:05.011Z,1.05
2022-09-16T07:16:31.849Z,1.08
2022-09-16T07:19:01.175Z,1.00
2022-09-16T07:21:30.224Z,1.48
2022-09-16T07:23:59.390Z,1.25
2022-09-16T07:26:28.579Z,0.93
2022-09-16T07:28:56.024Z,0.75
2022-09-16T07:31:25.603Z,1.17
2022-09-16T07:33:56.072Z,1.27
2022-09-16T07:36:27.077Z,1.58
2022-09-16T07:38:57.224Z,1.10
2022-09-16T07:41:29.786Z,1.00
2022-09-16T07:43:59.275Z,0.88
2022-09-16T07:46:28.269Z,0.80
2022-09-16T07:48:55.971Z,1.15
2022-09-16T07:51:24.698Z,1.20
2022-09-16T07:54:03.518Z,0.80
2022-09-16T07:56:34.259Z,0.77
2022-09-16T07:59:02.655Z,0.90
2022-09-16T08:01:31.202Z,0.90
2022-09-16T08:03:59.640Z,1.35
2022-09-16T08:06:28.991Z,0.95
2022-09-16T08:08:59.757Z,0.88
2022-09-16T08:11:32.456Z,0.95
2022-09-16T08:14:00.212Z,0.90
2022-09-16T08:16:27.234Z,1.05
2022-09-16T08:18:56.392Z,2.20
2022-09-16T08:21:25.866Z,0.95
2022-09-16T08:23:52.708Z,0.90
2022-09-16T08:26:20.618Z,0.85
2022-09-16T08:29:10.108Z,0.88
2022-09-16T08:31:36.487Z,0.85
2022-09-16T08:34:03.639Z,1.00
2022-09-16T08:36:30.316Z,1.05
2022-09-16T08:38:57.331Z,0.65
2022-09-16T08:41:32.536Z,1.10
2022-09-16T08:44:19.914Z,0.85
2022-09-16T08:46:51.825Z,1.00
2022-09-16T08:49:32.606Z,0.90
2022-09-16T08:52:03.280Z,0.63
2022-09-16T08:54:50.921Z,1.48
2022-09-16T08:57:21.361Z,0.65
2022-09-16T08:59:56.180Z,0.77
2022-09-16T09:02:56.021Z,0.52
2022-09-16T09:05:56.210Z,0.68
2022-09-16T09:08:43.857Z,0.50
2022-09-16T09:11:20.368Z,0.85
2022-09-16T09:14:20.708Z,0.80
2022-09-16T09:17:37.049Z,0.80
2022-09-16T09:20:33.172Z,0.68
2022-09-16T09:23:35.432Z,0.90
2022-09-16T09:29:16.880Z,1.20
2022-09-16T09:32:15.353Z,0.75
2022-09-16T09:35:03.992Z,1.05
2022-09-16T09:37:33.948Z,0.93
2022-09-16T09:40:08.332Z,0.95
2022-09-16T09:43:07.553Z,0.70
2022-09-16T09:45:41.329Z,1.70
2022-09-16T09:48:21.747Z,1.00
2022-09-16T09:50:49.789Z,0.77
2022-09-16T09:53:25.491Z,0.60
2022-09-16T09:55:59.004Z,0.70
2022-09-16T09:58:38.249Z,1.08
2022-09-16T10:01:05.135Z,0.68
2022-09-16T10:03:32.122Z,0.77
2022-09-16T10:05:58.907Z,0.57
2022-09-16T10:08:35.980Z,0.50
2022-09-16T10:11:14.492Z,1.35
2022-09-16T10:13:55.402Z,0.60
2022-09-16T10:16:27.118Z,0.83
2022-09-16T10:19:04.194Z,0.57
2022-09-16T10:21:49.492Z,0.88
2022-09-16T10:24:36.980Z,0.60
2022-09-16T10:27:21.094Z,1.10
2022-09-16T10:29:48.972Z,0.80
2022-09-16T10:32:18.663Z,0.90
2022-09-16T10:34:46.761Z,0.65
2022-09-16T10:37:13.464Z,0.77
2022-09-16T10:39:52.659Z,1.23
2022-09-16T10:42:21.024Z,0.77
2022-09-16T10:44:51.197Z,0.77
2022-09-16T10:47:25.518Z,0.50
2022-09-16T10:50:05.297Z,0.70
2022-09-16T10:52:42.356Z,0.55
2022-09-16T10:55:38.605Z,0.82
2022-09-16T10:58:09.391Z,1.55
2022-09-16T11:00:45.907Z,0.75
2022-09-16T11:03:34.747Z,0.73
2022-09-16T11:06:31.063Z,0.60
2022-09-16T11:09:16.569Z,0.50
2022-09-16T11:12:00.301Z,0.60
2022-09-16T11:14:42.498Z,0.70
2022-09-16T11:17:36.479Z,1.67
2022-09-16T11:20:17.682Z,0.60
2022-09-16T11:23:18.369Z,0.70
2022-09-16T11:25:59.737Z,0.60
2022-09-16T11:28:57.767Z,0.63
2022-09-16T11:32:15.800Z,1.27
2022-09-16T11:34:52.723Z,0.80
2022-09-16T11:37:28.773Z,0.50
2022-09-16T11:40:32.945Z,0.73
2022-09-16T11:43:36.560Z,0.90
2022-09-16T11:46:42.967Z,0.63
2022-09-16T11:49:19.243Z,0.73
2022-09-16T11:52:22.959Z,0.50
2022-09-16T11:55:09.845Z,0.70
2022-09-16T11:57:41.630Z,0.60
2022-09-16T12:02:55.712Z,0.47
2022-09-16T12:05:30.150Z,0.20
2022-09-16T12:08:23.497Z,0.70
2022-09-16T12:10:56.055Z,0.57
2022-09-16T12:13:28.398Z,0.20
2022-09-16T12:15:59.336Z,0.30
2022-09-16T12:18:37.619Z,0.30
2022-09-16T12:21:16.323Z,0.43
2022-09-16T12:23:55.612Z,0.43
2022-09-16T12:26:29.360Z,0.70
2022-09-16T12:29:21.451Z,0.77
2022-09-16T12:31:54.999Z,0.63
2022-09-16T12:34:26.553Z,0.32
2022-09-16T12:37:16.969Z,0.95
2022-09-16T12:39:43.776Z,0.15
2022-09-16T12:42:25.568Z,0.30
2022-09-16T12:45:11.088Z,0.40
2022-09-16T12:47:53.076Z,0.10
2022-09-16T12:53:25.260Z,0.40
2022-09-16T12:56:08.937Z,0.30
2022-09-16T12:59:01.811Z,0.47
2022-09-16T13:01:37.162Z,0.40
2022-09-16T13:04:20.262Z,0.52
2022-09-16T13:06:52.814Z,0.40
2022-09-16T13:09:27.731Z,0.50
2022-09-16T13:14:56.336Z,0.40
2022-09-16T13:17:38.428Z,0.40
2022-09-16T13:20:34.597Z,0.50
2022-09-16T13:23:14.045Z,0.50
2022-09-16T13:25:55.551Z,0.85
2022-09-16T13:28:37.472Z,0.43
2022-09-16T13:33:43.935Z,1.05
2022-09-16T13:36:19.183Z,0.93
2022-09-16T13:38:51.520Z,0.80
2022-09-16T13:41:38.115Z,1.05
2022-09-16T13:44:26.764Z,0.60
2022-09-16T13:46:53.691Z,0.88
2022-09-16T13:49:25.823Z,0.77
2022-09-16T13:51:52.812Z,0.75
2022-09-16T13:54:26.212Z,0.90
2022-09-16T13:56:58.672Z,0.68
2022-09-16T14:02:42.065Z,0.70
2022-09-16T14:05:32.395Z,0.65
2022-09-16T14:08:35.106Z,0.88
2022-09-16T14:11:11.858Z,0.43
2022-09-16T14:13:45.555Z,0.47
2022-09-16T14:16:20.134Z,0.90
2022-09-16T14:19:24.824Z,0.70
2022-09-16T14:22:10.598Z,0.52
2022-09-16T14:24:39.976Z,0.70
2022-09-16T14:27:34.087Z,0.70
2022-09-16T14:30:03.602Z,0.40
2022-09-16T14:32:33.165Z,0.70
2022-09-16T14:35:03.858Z,0.63
2022-09-16T14:37:32.120Z,0.32
2022-09-16T14:40:07.473Z,0.40
2022-09-16T14:42:34.384Z,0.70
2022-09-16T14:45:01.119Z,0.52
2022-09-16T14:47:51.185Z,0.68
2022-09-16T14:50:26.231Z,0.20
2022-09-16T14:52:55.802Z,0.50
2022-09-16T14:55:27.303Z,0.40
2022-09-16T14:57:54.051Z,0.45
2022-09-16T15:00:21.157Z,0.50
2022-09-16T15:03:20.111Z,0.50
2022-09-16T15:05:47.571Z,0.40
2022-09-16T15:08:32.520Z,0.60
2022-09-16T15:11:04.151Z,0.60
2022-09-16T15:13:37.035Z,0.30
2022-09-16T15:16:11.832Z,0.30
2022-09-16T15:18:53.568Z,0.65
2022-09-16T15:21:30.372Z,0.60
2022-09-16T15:24:01.888Z,0.38
2022-09-16T15:26:42.860Z,0.68
2022-09-16T15:29:18.328Z,0.50
2022-09-16T15:31:45.732Z,0.60
2022-09-16T15:34:24.030Z,0.43
2022-09-16T15:36:59.910Z,0.73
2022-09-16T15:39:32.480Z,0.73
2022-09-16T15:42:11.427Z,0.45
2022-09-16T15:45:00.134Z,0.60
2022-09-16T15:47:32.026Z,0.88
2022-09-16T15:52:25.416Z,0.98
2022-09-16T15:55:05.161Z,0.60
2022-09-16T15:57:42.307Z,0.90
2022-09-16T16:00:16.245Z,0.50
2022-09-16T16:03:15.868Z,0.50
2022-09-16T16:05:51.468Z,0.52
2022-09-16T16:08:44.942Z,0.82
2022-09-16T16:11:14.405Z,0.73
2022-09-16T16:13:42.266Z,0.70
2022-09-16T16:16:09.773Z,1.00
2022-09-16T16:18:37.887Z,0.63
2022-09-16T16:21:09.609Z,1.25
2022-09-16T16:23:36.950Z,0.65
2022-09-16T16:26:08.496Z,1.02
2022-09-16T16:28:36.138Z,1.02
2022-09-16T16:31:17.804Z,0.60
2022-09-16T16:33:46.695Z,0.52
2022-09-16T16:36:17.747Z,0.82
2022-09-16T16:38:46.186Z,0.30
2022-09-16T16:41:13.527Z,0.80
2022-09-16T16:43:40.512Z,1.10
2022-09-16T16:46:07.371Z,0.80
2022-09-16T16:48:34.182Z,0.90
2022-09-16T16:51:03.708Z,1.13
2022-09-16T16:53:31.039Z,1.30
2022-09-16T16:56:15.123Z,1.23
2022-09-16T16:58:43.042Z,0.90
2022-09-16T17:01:16.172Z,0.65
2022-09-16T17:03:49.186Z,1.10
2022-09-16T17:06:17.008Z,0.70
2022-09-16T17:08:43.739Z,1.05
2022-09-16T17:11:13.163Z,0.85
2022-09-16T17:13:42.061Z,0.77
2022-09-16T17:16:10.462Z,0.95
2022-09-16T17:18:38.660Z,1.05
2022-09-16T17:21:07.768Z,0.80
2022-09-16T17:23:35.248Z,0.80
2022-09-16T17:26:11.260Z,0.70
2022-09-16T17:28:40.363Z,0.90
2022-09-16T17:31:24.568Z,1.13
2022-09-16T17:34:02.818Z,1.30
2022-09-16T17:36:38.320Z,0.77
2022-09-16T17:39:15.658Z,0.65
2022-09-16T17:41:49.745Z,1.10
2022-09-16T17:44:20.408Z,1.35
2022-09-16T17:46:48.873Z,1.55
2022-09-16T17:49:26.383Z,1.00
2022-09-16T17:51:55.683Z,1.02
2022-09-16T17:54:28.660Z,0.75
2022-09-16T17:56:56.905Z,0.82
2022-09-16T17:59:25.939Z,1.02
2022-09-16T18:01:54.999Z,1.15
2022-09-16T18:04:22.136Z,1.23
2022-09-16T18:06:48.802Z,1.05
2022-09-16T18:09:18.511Z,1.38
2022-09-16T18:11:45.793Z,2.08
2022-09-16T18:14:13.762Z,1.20
2022-09-16T18:16:41.129Z,1.15
2022-09-16T18:19:08.525Z,0.82
2022-09-16T18:21:36.781Z,1.02
2022-09-16T18:24:05.250Z,1.27
2022-09-16T18:26:32.060Z,0.98
2022-09-16T18:29:10.920Z,0.98
2022-09-16T18:31:44.061Z,0.52
2022-09-16T18:34:11.859Z,0.65
2022-09-16T18:36:39.406Z,1.00
2022-09-16T18:39:07.849Z,1.20
2022-09-16T18:41:38.059Z,1.38
2022-09-16T18:44:07.832Z,0.93
2022-09-16T18:46:37.316Z,0.80
2022-09-16T18:49:04.817Z,1.23
2022-09-16T18:51:32.977Z,1.05
2022-09-16T18:54:03.872Z,1.95
2022-09-16T18:56:32.232Z,1.30
2022-09-16T18:59:22.040Z,1.05
2022-09-16T19:01:51.977Z,1.92
2022-09-16T19:04:21.289Z,0.80
2022-09-16T19:06:50.545Z,0.85
2022-09-16T19:09:19.457Z,0.40
2022-09-16T19:11:46.357Z,1.00
2022-09-16T19:14:13.891Z,0.60
2022-09-16T19:16:45.125Z,1.55
2022-09-16T19:19:13.786Z,1.70
2022-09-16T19:21:42.050Z,0.70
2022-09-16T19:24:14.017Z,0.93
2022-09-16T19:29:09.178Z,0.73
2022-09-16T19:31:38.677Z,0.80
2022-09-16T19:34:05.980Z,0.75
2022-09-16T19:36:34.685Z,0.90
2022-09-16T19:39:01.531Z,0.65
2022-09-16T19:41:30.974Z,0.70
2022-09-16T19:43:59.692Z,1.35
2022-09-16T19:46:28.147Z,1.20
2022-09-16T19:48:55.382Z,0.60
2022-09-16T19:51:23.780Z,0.70
2022-09-16T19:53:52.143Z,0.90
2022-09-16T19:56:24.966Z,0.77
2022-09-16T19:58:52.774Z,0.82
2022-09-16T20:01:28.301Z,1.00
2022-09-16T20:03:55.673Z,1.00
2022-09-16T20:06:38.768Z,1.67
2022-09-16T20:09:08.658Z,0.52
2022-09-16T20:11:38.046Z,0.88
2022-09-16T20:14:12.892Z,1.20
2022-09-16T20:16:40.399Z,0.93
2022-09-16T20:19:11.067Z,1.00
2022-09-16T20:21:38.460Z,1.00
2022-09-16T20:24:06.916Z,1.10
2022-09-16T20:26:35.123Z,0.70
2022-09-16T20:29:02.766Z,0.55
2022-09-16T20:31:32.570Z,1.02
2022-09-16T20:33:59.672Z,1.63
2022-09-16T20:36:30.435Z,1.10
2022-09-16T20:38:59.879Z,1.42
2022-09-16T20:41:29.345Z,0.63
2022-09-16T20:43:56.335Z,0.88
2022-09-16T20:46:30.313Z,1.52
2022-09-16T20:49:01.730Z,0.63
2022-09-16T20:51:33.655Z,0.93
2022-09-16T20:56:38.318Z,0.80
2022-09-16T20:59:10.636Z,0.80
2022-09-16T21:01:39.182Z,0.73
2022-09-16T21:04:20.381Z,1.08
2022-09-16T21:06:47.398Z,0.80
2022-09-16T21:09:32.376Z,0.70
2022-09-16T21:12:40.298Z,0.73
2022-09-16T21:15:43.035Z,0.60
2022-09-16T21:18:57.297Z,0.50
2022-09-16T21:21:34.821Z,1.25
2022-09-16T21:25:11.274Z,0.80
2022-09-16T21:27:47.501Z,0.50
2022-09-16T21:30:14.563Z,1.08
2022-09-16T21:32:43.098Z,1.15
2022-09-16T21:35:10.280Z,1.02
2022-09-16T21:37:36.961Z,0.70
2022-09-16T21:40:03.935Z,1.15
2022-09-16T21:42:31.038Z,1.42
2022-09-16T21:44:59.835Z,1.50
2022-09-16T21:47:26.536Z,0.63
2022-09-16T21:49:53.166Z,0.90
2022-09-16T21:52:20.487Z,1.33
2022-09-16T21:54:47.108Z,0.60
2022-09-16T21:57:14.539Z,0.70
2022-09-16T21:59:41.180Z,0.70
2022-09-16T22:02:07.914Z,0.50
2022-09-16T22:04:34.717Z,0.90
2022-09-16T22:07:01.352Z,0.60
2022-09-16T22:09:28.019Z,0.93
2022-09-16T22:11:55.885Z,0.68
2022-09-16T22:14:22.522Z,0.47
2022-09-16T22:16:49.188Z,0.40
2022-09-16T22:19:18.081Z,0.70
2022-09-16T22:21:47.151Z,0.60
2022-09-16T22:24:16.221Z,0.68
2022-09-16T22:26:43.522Z,0.60
2022-09-16T22:29:12.059Z,0.57
2022-09-16T22:31:41.782Z,0.80
2022-09-16T22:34:09.145Z,0.70
2022-09-16T22:36:37.340Z,0.90
2022-09-16T22:39:11.879Z,0.80
2022-09-16T22:41:38.550Z,0.82
2022-09-16T22:44:05.302Z,0.90
2022-09-16T22:46:35.179Z,0.88
2022-09-16T22:49:01.940Z,0.70
2022-09-16T22:51:29.051Z,0.93
2022-09-16T22:53:56.040Z,0.68
2022-09-16T22:56:25.892Z,0.70
2022-09-16T22:58:57.574Z,0.55
2022-09-16T23:01:26.859Z,0.65
2022-09-16T23:03:58.103Z,0.63
2022-09-16T23:06:26.151Z,0.55
2022-09-16T23:08:53.469Z,0.65
2022-09-16T23:11:23.968Z,0.85
2022-09-16T23:13:52.747Z,0.50
2022-09-16T23:16:26.196Z,0.95
2022-09-16T23:18:54.605Z,0.93
2022-09-16T23:21:22.932Z,0.55
2022-09-16T23:23:53.475Z,0.68
2022-09-16T23:26:22.949Z,0.73
2022-09-16T23:28:54.736Z,0.70
2022-09-16T23:31:24.206Z,0.70
2022-09-16T23:33:51.291Z,1.05
2022-09-16T23:36:18.817Z,0.95
2022-09-16T23:38:46.318Z,1.10
2022-09-16T23:41:19.731Z,0.95
2022-09-16T23:43:47.783Z,1.10
2022-09-16T23:46:16.582Z,0.90
2022-09-16T23:48:44.154Z,1.40
2022-09-16T23:51:12.393Z,1.20
2022-09-16T23:53:39.907Z,1.10
2022-09-16T23:56:11.427Z,1.17
2022-09-16T23:58:39.005Z,1.20
